sensor_id;sensor_type;location;lat;lon;timestamp;P1;durP1;ratioP1;P2;durP2;ratioP2
35592;SDS011;64447;52.140;5.602;2023-07-30T03:16:50;13.52;;;5.22;;
35592;SDS011;64447;52.140;5.602;2023-07-30T03:19:15;13.40;;;5.30;;
35592;SDS011;64447;52.140;5.602;2023-07-30T03:21:41;18.33;;;5.28;;
35592;SDS011;64447;52.140;5.602;2023-07-30T03:24:07;18.40;;;6.65;;
35592;SDS011;64447;52.140;5.602;2023-07-30T03:29:55;11.95;;;5.10;;
35592;SDS011;64447;52.140;5.602;2023-07-30T03:32:21;15.95;;;4.97;;
35592;SDS011;64447;52.140;5.602;2023-07-30T03:34:46;14.27;;;5.85;;
35592;SDS011;64447;52.140;5.602;2023-07-30T03:37:12;17.08;;;5.55;;
35592;SDS011;64447;52.140;5.602;2023-07-30T03:39:37;12.38;;;5.13;;
35592;SDS011;64447;52.140;5.602;2023-07-30T03:42:03;18.50;;;5.80;;
35592;SDS011;64447;52.140;5.602;2023-07-30T03:44:29;12.70;;;6.00;;
35592;SDS011;64447;52.140;5.602;2023-07-30T03:46:54;14.00;;;5.45;;
35592;SDS011;64447;52.140;5.602;2023-07-30T03:49:20;18.92;;;6.63;;
35592;SDS011;64447;52.140;5.602;2023-07-30T03:51:46;14.65;;;5.78;;
35592;SDS011;64447;52.140;5.602;2023-07-30T03:54:12;13.10;;;5.53;;
35592;SDS011;64447;52.140;5.602;2023-07-30T03:59:59;22.10;;;8.00;;
35592;SDS011;64447;52.140;5.602;2023-07-30T04:02:25;19.77;;;7.80;;
35592;SDS011;64447;52.140;5.602;2023-07-30T04:04:51;25.70;;;7.78;;
35592;SDS011;64447;52.140;5.602;2023-07-30T04:07:17;21.30;;;7.18;;
35592;SDS011;64447;52.140;5.602;2023-07-30T04:12:08;20.83;;;7.18;;
35592;SDS011;64447;52.140;5.602;2023-07-30T04:14:33;20.80;;;8.70;;
35592;SDS011;64447;52.140;5.602;2023-07-30T04:16:59;20.90;;;8.13;;
35592;SDS011;64447;52.140;5.602;2023-07-30T04:21:50;14.85;;;7.53;;
35592;SDS011;64447;52.140;5.602;2023-07-30T04:24:16;23.80;;;9.70;;
35592;SDS011;64447;52.140;5.602;2023-07-30T04:32:10;22.02;;;8.70;;
35592;SDS011;64447;52.140;5.602;2023-07-30T04:34:35;23.80;;;10.57;;
35592;SDS011;64447;52.140;5.602;2023-07-30T04:45:15;25.05;;;11.35;;
35592;SDS011;64447;52.140;5.602;2023-07-30T04:59:48;24.23;;;9.50;;
35592;SDS011;64447;52.140;5.602;2023-07-30T05:02:14;32.40;;;13.73;;
35592;SDS011;64447;52.140;5.602;2023-07-30T05:04:39;28.30;;;12.15;;
35592;SDS011;64447;52.140;5.602;2023-07-30T05:07:05;27.80;;;13.83;;
35592;SDS011;64447;52.140;5.602;2023-07-30T05:09:30;30.67;;;13.85;;
35592;SDS011;64447;52.140;5.602;2023-07-30T17:54:19;9.95;;;3.13;;
35592;SDS011;64447;52.140;5.602;2023-07-30T17:56:44;14.82;;;3.88;;
35592;SDS011;64447;52.140;5.602;2023-07-30T17:59:10;9.20;;;3.13;;
35592;SDS011;64447;52.140;5.602;2023-07-30T18:04:02;6.45;;;3.25;;
35592;SDS011;64447;52.140;5.602;2023-07-30T18:08:53;8.10;;;3.40;;
35592;SDS011;64447;52.140;5.602;2023-07-30T18:13:44;6.93;;;3.00;;
35592;SDS011;64447;52.140;5.602;2023-07-30T18:16:13;9.23;;;2.90;;
35592;SDS011;64447;52.140;5.602;2023-07-30T18:18:38;4.20;;;2.45;;
35592;SDS011;64447;52.140;5.602;2023-07-30T18:21:04;6.90;;;2.97;;
35592;SDS011;64447;52.140;5.602;2023-07-30T18:23:30;5.15;;;2.80;;
35592;SDS011;64447;52.140;5.602;2023-07-30T18:25:55;7.22;;;2.80;;
35592;SDS011;64447;52.140;5.602;2023-07-30T18:28:21;5.87;;;2.00;;
35592;SDS011;64447;52.140;5.602;2023-07-30T18:30:47;4.75;;;2.28;;
35592;SDS011;64447;52.140;5.602;2023-07-30T18:33:13;3.70;;;2.20;;
35592;SDS011;64447;52.140;5.602;2023-07-30T18:35:40;4.37;;;2.43;;
35592;SDS011;64447;52.140;5.602;2023-07-30T18:38:06;4.47;;;2.57;;
35592;SDS011;64447;52.140;5.602;2023-07-30T18:40:36;4.87;;;2.50;;
35592;SDS011;64447;52.140;5.602;2023-07-30T18:43:02;5.75;;;2.72;;
35592;SDS011;64447;52.140;5.602;2023-07-30T18:45:32;4.47;;;2.50;;
35592;SDS011;64447;52.140;5.602;2023-07-30T18:47:59;4.60;;;2.38;;
35592;SDS011;64447;52.140;5.602;2023-07-30T18:50:24;4.43;;;2.57;;
35592;SDS011;64447;52.140;5.602;2023-07-30T18:52:50;5.17;;;2.80;;
35592;SDS011;64447;52.140;5.602;2023-07-30T18:55:16;6.10;;;2.85;;
35592;SDS011;64447;52.140;5.602;2023-07-30T18:57:41;6.15;;;2.80;;
35592;SDS011;64447;52.140;5.602;2023-07-30T19:00:07;6.13;;;3.10;;
35592;SDS011;64447;52.140;5.602;2023-07-30T19:02:33;6.63;;;3.58;;
35592;SDS011;64447;52.140;5.602;2023-07-30T19:04:59;6.23;;;3.27;;
35592;SDS011;64447;52.140;5.602;2023-07-30T19:07:25;6.40;;;3.28;;
35592;SDS011;64447;52.140;5.602;2023-07-30T19:09:51;6.30;;;3.53;;
35592;SDS011;64447;52.140;5.602;2023-07-30T19:12:16;7.50;;;3.47;;
35592;SDS011;64447;52.140;5.602;2023-07-30T19:14:42;6.07;;;3.53;;
35592;SDS011;64447;52.140;5.602;2023-07-30T19:17:08;6.43;;;3.70;;
35592;SDS011;64447;52.140;5.602;2023-07-30T19:19:33;6.00;;;3.85;;
35592;SDS011;64447;52.140;5.602;2023-07-30T19:21:59;5.07;;;3.80;;
35592;SDS011;64447;52.140;5.602;2023-07-30T19:24:25;7.22;;;4.22;;
35592;SDS011;64447;52.140;5.602;2023-07-30T19:26:51;6.13;;;3.67;;
35592;SDS011;64447;52.140;5.602;2023-07-30T19:29:16;7.53;;;3.80;;
35592;SDS011;64447;52.140;5.602;2023-07-30T19:31:42;6.05;;;4.22;;
35592;SDS011;64447;52.140;5.602;2023-07-30T19:34:11;6.57;;;4.00;;
35592;SDS011;64447;52.140;5.602;2023-07-30T19:36:40;7.23;;;4.33;;
35592;SDS011;64447;52.140;5.602;2023-07-30T19:39:06;7.53;;;4.77;;
35592;SDS011;64447;52.140;5.602;2023-07-30T19:41:32;8.10;;;4.37;;
35592;SDS011;64447;52.140;5.602;2023-07-30T19:43:58;6.97;;;4.07;;
35592;SDS011;64447;52.140;5.602;2023-07-30T19:46:24;6.90;;;3.85;;
35592;SDS011;64447;52.140;5.602;2023-07-30T19:48:50;7.05;;;3.92;;
35592;SDS011;64447;52.140;5.602;2023-07-30T20:37:42;8.75;;;3.83;;
35592;SDS011;64447;52.140;5.602;2023-07-30T20:40:07;6.90;;;4.30;;
35592;SDS011;64447;52.140;5.602;2023-07-30T20:42:33;4.90;;;3.95;;
35592;SDS011;64447;52.140;5.602;2023-07-30T20:44:59;8.75;;;4.47;;
35592;SDS011;64447;52.140;5.602;2023-07-30T20:47:25;7.43;;;4.13;;
35592;SDS011;64447;52.140;5.602;2023-07-30T20:49:50;6.40;;;4.03;;
35592;SDS011;64447;52.140;5.602;2023-07-30T20:54:41;5.43;;;3.90;;
35592;SDS011;64447;52.140;5.602;2023-07-30T21:01:58;4.93;;;3.30;;
35592;SDS011;64447;52.140;5.602;2023-07-30T21:04:23;6.10;;;4.18;;
35592;SDS011;64447;52.140;5.602;2023-07-30T21:06:49;4.18;;;3.28;;
35592;SDS011;64447;52.140;5.602;2023-07-30T21:09:15;6.88;;;3.90;;
35592;SDS011;64447;52.140;5.602;2023-07-30T21:11:41;5.63;;;3.15;;
35592;SDS011;64447;52.140;5.602;2023-07-30T21:16:32;4.40;;;3.53;;
35592;SDS011;64447;52.140;5.602;2023-07-30T21:26:15;5.75;;;3.38;;
